createdAt,value
2019-03-10T00:01:27.193Z,11.10
2019-03-10T00:03:56.433Z,11.10
2019-03-10T00:06:25.629Z,11.10
2019-03-10T00:08:54.833Z,11.20
2019-03-10T00:11:24.161Z,11.20
2019-03-10T00:13:53.412Z,11.20
2019-03-10T00:16:22.612Z,11.20
2019-03-10T00:18:51.815Z,11.20
2019-03-10T00:21:21.319Z,11.20
2019-03-10T00:23:50.537Z,11.20
2019-03-10T00:26:21.047Z,11.20
2019-03-10T00:28:50.399Z,11.20
2019-03-10T00:31:19.672Z,11.10
2019-03-10T00:33:48.888Z,11.10
2019-03-10T00:36:18.076Z,11.20
2019-03-10T00:39:11.398Z,11.10
2019-03-10T00:41:58.738Z,11.10
2019-03-10T00:45:11.230Z,11.10
2019-03-10T00:48:07.756Z,11.10
2019-03-10T00:51:25.633Z,11.10
2019-03-10T00:53:54.773Z,11.00
2019-03-10T00:56:23.995Z,11.00
2019-03-10T00:58:53.223Z,11.00
2019-03-10T01:01:22.396Z,11.00
2019-03-10T01:03:51.896Z,11.00
2019-03-10T01:06:21.153Z,11.00
2019-03-10T01:08:50.356Z,11.00
2019-03-10T01:11:19.627Z,11.00
2019-03-10T01:13:48.770Z,10.90
2019-03-10T01:16:18.274Z,11.00
2019-03-10T01:18:48.805Z,11.00
2019-03-10T01:21:19.001Z,11.00
2019-03-10T01:23:48.193Z,10.90
2019-03-10T01:26:17.413Z,11.00
2019-03-10T01:28:46.829Z,11.00
2019-03-10T01:31:25.108Z,11.00
2019-03-10T01:34:26.164Z,11.00
2019-03-10T01:36:55.750Z,11.10
2019-03-10T01:39:25.087Z,11.10
2019-03-10T01:41:54.245Z,11.00
2019-03-10T01:44:23.404Z,11.10
2019-03-10T01:46:52.556Z,11.10
2019-03-10T01:49:21.725Z,11.10
2019-03-10T01:51:50.875Z,11.10
2019-03-10T01:54:20.460Z,11.20
2019-03-10T01:56:49.923Z,11.10
2019-03-10T01:59:19.127Z,11.10
2019-03-10T02:01:48.273Z,11.10
2019-03-10T02:04:17.502Z,11.10
2019-03-10T02:06:46.632Z,11.10
2019-03-10T02:09:15.825Z,11.10
2019-03-10T02:11:45.222Z,11.20
2019-03-10T02:14:14.714Z,11.20
2019-03-10T02:16:44.080Z,11.20
2019-03-10T02:19:13.323Z,11.20
2019-03-10T02:21:42.458Z,11.20
2019-03-10T02:24:11.968Z,11.20
2019-03-10T02:26:41.136Z,11.20
2019-03-10T02:29:10.319Z,11.20
2019-03-10T02:31:39.468Z,11.30
2019-03-10T02:34:08.645Z,11.20
2019-03-10T02:36:38.041Z,11.20
2019-03-10T02:39:08.829Z,11.20
2019-03-10T02:41:38.016Z,11.20
2019-03-10T02:44:07.373Z,11.20
2019-03-10T02:46:36.581Z,11.20
2019-03-10T02:49:05.725Z,11.20
2019-03-10T02:51:35.008Z,11.20
2019-03-10T02:54:04.248Z,11.20
2019-03-10T02:56:33.423Z,11.20
2019-03-10T02:59:02.587Z,11.20
2019-03-10T03:01:31.776Z,11.20
2019-03-10T03:04:00.960Z,11.20
2019-03-10T03:06:30.460Z,11.20
2019-03-10T03:08:59.963Z,11.20
2019-03-10T03:11:29.815Z,11.20
2019-03-10T03:13:59.125Z,11.20
2019-03-10T03:16:28.470Z,11.20
2019-03-10T03:18:57.631Z,11.20
2019-03-10T03:21:41.550Z,11.20
2019-03-10T03:23:57.662Z,11.20
2019-03-10T03:26:26.827Z,11.30
2019-03-10T03:28:55.977Z,11.30
2019-03-10T03:31:25.161Z,11.30
2019-03-10T03:33:54.404Z,11.30
2019-03-10T03:36:32.230Z,11.10
2019-03-10T03:39:24.781Z,11.10
2019-03-10T03:41:53.942Z,10.70
2019-03-10T03:44:23.103Z,10.50
2019-03-10T03:46:52.277Z,10.30
2019-03-10T03:49:21.417Z,10.10
2019-03-10T03:51:50.593Z,10.00
2019-03-10T03:54:19.727Z,10.00
2019-03-10T03:56:48.879Z,10.00
2019-03-10T03:59:18.021Z,10.10
2019-03-10T04:01:57.403Z,10.10
2019-03-10T04:04:26.575Z,9.90
2019-03-10T04:06:55.718Z,9.80
2019-03-10T04:09:24.850Z,9.80
2019-03-10T04:11:53.967Z,9.90
2019-03-10T04:14:23.128Z,9.90
2019-03-10T04:16:52.279Z,9.80
2019-03-10T04:19:21.425Z,9.80
2019-03-10T04:21:50.977Z,9.60
2019-03-10T04:24:20.126Z,9.50
2019-03-10T04:26:49.285Z,9.50
2019-03-10T04:29:18.441Z,9.60
2019-03-10T04:31:47.576Z,9.60
2019-03-10T04:34:16.741Z,9.60
2019-03-10T04:36:45.883Z,9.60
2019-03-10T04:39:15.007Z,9.60
2019-03-10T04:41:44.143Z,9.50
2019-03-10T04:44:13.336Z,9.50
2019-03-10T04:46:42.461Z,9.40
2019-03-10T04:49:11.628Z,9.40
2019-03-10T04:51:40.796Z,9.40
2019-03-10T04:54:09.973Z,9.40
2019-03-10T04:56:46.465Z,9.30
2019-03-10T04:59:15.622Z,9.30
2019-03-10T05:01:44.853Z,9.30
2019-03-10T05:04:14.164Z,9.30
2019-03-10T05:06:43.300Z,9.40
2019-03-10T05:09:12.459Z,9.40
2019-03-10T05:11:41.871Z,9.40
2019-03-10T05:14:11.020Z,9.20
2019-03-10T05:16:40.206Z,9.30
2019-03-10T05:19:09.433Z,9.30
2019-03-10T05:21:38.593Z,9.30
2019-03-10T05:24:11.852Z,9.30
2019-03-10T05:26:41.015Z,9.30
2019-03-10T05:29:10.171Z,9.30
2019-03-10T05:31:39.339Z,9.20
2019-03-10T05:34:08.471Z,9.30
2019-03-10T05:36:37.628Z,9.40
2019-03-10T05:39:08.054Z,9.40
2019-03-10T05:41:37.357Z,9.20
2019-03-10T05:44:06.599Z,9.20
2019-03-10T05:46:35.763Z,9.20
2019-03-10T05:49:04.931Z,9.20
2019-03-10T05:51:34.149Z,9.20
2019-03-10T05:54:03.267Z,9.20
2019-03-10T05:56:32.528Z,9.20
2019-03-10T05:59:01.717Z,9.20
2019-03-10T06:01:30.973Z,9.30
2019-03-10T06:04:00.179Z,9.40
2019-03-10T06:06:29.364Z,9.30
2019-03-10T06:08:58.529Z,9.20
2019-03-10T06:11:27.961Z,9.10
2019-03-10T06:13:57.100Z,9.20
2019-03-10T06:16:26.253Z,9.30
2019-03-10T06:18:55.401Z,9.20
2019-03-10T06:21:24.556Z,9.20
2019-03-10T06:23:53.755Z,9.20
2019-03-10T06:26:22.934Z,9.20
2019-03-10T06:28:52.235Z,9.20
2019-03-10T06:31:21.386Z,9.20
2019-03-10T06:33:50.804Z,9.10
2019-03-10T06:36:20.060Z,9.10
2019-03-10T06:38:49.229Z,9.20
2019-03-10T06:41:18.377Z,9.10
2019-03-10T06:43:47.678Z,9.20
2019-03-10T06:46:16.973Z,9.20
2019-03-10T06:48:46.165Z,9.20
2019-03-10T06:51:15.427Z,9.20
2019-03-10T06:53:44.610Z,9.30
2019-03-10T06:56:13.868Z,9.30
2019-03-10T06:58:43.381Z,9.20
2019-03-10T07:01:12.491Z,9.20
2019-03-10T07:03:41.774Z,9.10
2019-03-10T07:06:10.921Z,9.20
2019-03-10T07:08:40.068Z,9.20
2019-03-10T07:11:09.298Z,9.20
2019-03-10T07:13:39.671Z,9.30
2019-03-10T07:16:09.336Z,9.30
2019-03-10T07:18:38.544Z,9.30
2019-03-10T07:21:07.764Z,9.40
2019-03-10T07:23:36.972Z,9.50
2019-03-10T07:26:06.942Z,9.60
2019-03-10T07:29:08.600Z,9.60
2019-03-10T07:31:57.979Z,9.60
2019-03-10T07:34:42.019Z,9.80
2019-03-10T07:37:20.317Z,10.00
2019-03-10T07:40:00.386Z,10.20
2019-03-10T07:42:41.349Z,10.30
2019-03-10T07:45:38.663Z,10.40
2019-03-10T07:48:29.633Z,10.50
2019-03-10T07:51:17.953Z,10.60
2019-03-10T07:53:59.662Z,10.70
2019-03-10T07:56:36.347Z,10.70
2019-03-10T07:59:31.849Z,10.80
2019-03-10T08:02:20.055Z,10.80
2019-03-10T08:04:57.392Z,10.80
2019-03-10T08:07:35.102Z,10.90
2019-03-10T08:10:13.816Z,10.90
2019-03-10T08:12:58.472Z,10.90
2019-03-10T08:15:58.798Z,10.90
2019-03-10T08:18:42.563Z,11.00
2019-03-10T08:21:46.018Z,11.00
2019-03-10T08:24:21.719Z,11.00
2019-03-10T08:27:00.672Z,11.10
2019-03-10T08:29:44.905Z,11.10
2019-03-10T08:32:22.039Z,11.20
2019-03-10T08:35:10.231Z,11.20
2019-03-10T08:37:58.186Z,11.30
2019-03-10T08:40:39.293Z,11.30
2019-03-10T08:43:27.494Z,11.30
2019-03-10T08:46:07.017Z,11.30
2019-03-10T08:48:44.492Z,11.30
2019-03-10T08:51:26.950Z,11.30
2019-03-10T08:54:10.512Z,11.30
2019-03-10T08:57:01.511Z,11.30
2019-03-10T08:59:52.613Z,11.40
2019-03-10T09:02:48.452Z,11.40
2019-03-10T09:05:35.837Z,11.40
2019-03-10T09:08:16.646Z,11.50
2019-03-10T09:11:17.177Z,11.50
2019-03-10T09:14:01.193Z,11.50
2019-03-10T09:16:42.725Z,11.50
2019-03-10T09:19:29.584Z,11.60
2019-03-10T09:22:26.121Z,11.60
2019-03-10T09:25:13.127Z,11.60
2019-03-10T09:28:01.349Z,11.60
2019-03-10T09:31:01.912Z,11.60
2019-03-10T09:33:50.115Z,11.60
2019-03-10T09:36:24.650Z,11.70
2019-03-10T09:39:22.367Z,11.70
2019-03-10T09:41:59.920Z,11.70
2019-03-10T09:44:51.101Z,11.80
2019-03-10T09:47:39.465Z,11.80
2019-03-10T09:50:28.069Z,11.80
2019-03-10T09:53:12.651Z,11.80
2019-03-10T09:56:03.785Z,11.80
2019-03-10T09:58:51.100Z,11.90
2019-03-10T10:01:39.369Z,11.90
2019-03-10T10:04:39.927Z,11.90
2019-03-10T10:07:17.288Z,11.80
2019-03-10T10:10:11.251Z,11.90
2019-03-10T10:12:48.232Z,11.90
2019-03-10T10:15:34.744Z,11.90
2019-03-10T10:18:12.945Z,12.00
2019-03-10T10:20:59.884Z,11.90
2019-03-10T10:23:51.176Z,11.90
2019-03-10T10:26:45.260Z,11.90
2019-03-10T10:29:33.437Z,11.90
2019-03-10T10:32:17.137Z,11.90
2019-03-10T10:35:02.699Z,12.00
2019-03-10T10:37:49.042Z,12.00
2019-03-10T10:40:28.522Z,12.10
2019-03-10T10:43:08.130Z,12.20
2019-03-10T10:45:56.305Z,12.30
2019-03-10T10:48:50.841Z,12.30
2019-03-10T10:51:37.813Z,12.30
2019-03-10T10:54:25.861Z,12.30
2019-03-10T10:57:19.536Z,12.30
2019-03-10T11:00:07.843Z,12.30
2019-03-10T11:03:02.162Z,12.30
2019-03-10T11:05:55.672Z,12.30
2019-03-10T11:08:48.928Z,12.40
2019-03-10T11:11:47.481Z,12.40
2019-03-10T11:14:38.487Z,12.40
2019-03-10T11:17:26.843Z,12.30
2019-03-10T11:20:21.374Z,12.30
2019-03-10T11:23:08.298Z,12.30
2019-03-10T11:25:59.721Z,12.30
2019-03-10T11:28:46.727Z,12.30
2019-03-10T11:31:34.185Z,12.40
2019-03-10T11:34:21.381Z,12.50
2019-03-10T11:37:06.016Z,12.70
2019-03-10T11:39:57.357Z,12.70
2019-03-10T11:42:47.497Z,12.70
2019-03-10T11:45:42.625Z,12.80
2019-03-10T11:48:22.222Z,13.00
2019-03-10T11:51:09.325Z,13.70
2019-03-10T11:53:47.693Z,14.80
2019-03-10T11:56:41.876Z,15.50
2019-03-10T11:59:18.520Z,15.60
2019-03-10T12:01:52.848Z,15.20
2019-03-10T12:04:44.040Z,14.90
2019-03-10T12:07:20.042Z,14.50
2019-03-10T12:09:49.194Z,14.20
2019-03-10T12:12:18.795Z,14.20
2019-03-10T12:14:48.164Z,18.20
2019-03-10T12:17:17.409Z,20.20
2019-03-10T12:19:46.565Z,19.20
2019-03-10T12:22:15.759Z,17.90
2019-03-10T12:24:45.036Z,16.20
2019-03-10T12:27:14.229Z,15.50
2019-03-10T12:29:43.609Z,15.00
2019-03-10T12:32:12.803Z,14.70
2019-03-10T12:34:41.933Z,14.50
2019-03-10T12:37:11.176Z,14.50
2019-03-10T12:39:40.379Z,15.80
2019-03-10T12:42:09.765Z,17.70
2019-03-10T12:44:38.984Z,17.00
2019-03-10T12:47:08.158Z,16.00
2019-03-10T12:49:37.326Z,15.30
2019-03-10T12:52:06.538Z,15.00
2019-03-10T12:54:35.733Z,14.70
2019-03-10T12:57:05.055Z,14.60
2019-03-10T12:59:34.329Z,14.60
2019-03-10T13:02:03.755Z,14.50
2019-03-10T13:04:33.160Z,14.80
2019-03-10T13:07:02.364Z,15.00
2019-03-10T13:09:31.602Z,17.00
2019-03-10T13:12:00.868Z,18.10
2019-03-10T13:14:31.045Z,18.50
2019-03-10T13:17:00.513Z,18.00
2019-03-10T13:19:29.815Z,18.80
2019-03-10T13:21:58.997Z,19.40
2019-03-10T13:24:28.291Z,18.10
2019-03-10T13:26:57.451Z,18.40
2019-03-10T13:29:26.894Z,19.10
2019-03-10T13:31:56.172Z,19.20
2019-03-10T13:34:25.467Z,18.60
2019-03-10T13:36:54.660Z,19.10
2019-03-10T13:39:24.032Z,20.00
2019-03-10T13:41:53.215Z,19.60
2019-03-10T13:44:24.734Z,20.30
2019-03-10T13:46:53.346Z,20.80
2019-03-10T13:49:22.640Z,21.20
2019-03-10T13:51:51.955Z,20.90
2019-03-10T13:54:21.299Z,19.90
2019-03-10T13:56:50.477Z,20.10
2019-03-10T13:59:20.132Z,20.20
2019-03-10T14:01:49.399Z,20.40
2019-03-10T14:04:18.567Z,20.70
2019-03-10T14:06:48.005Z,20.10
2019-03-10T14:09:17.264Z,20.20
2019-03-10T14:11:46.453Z,19.60
2019-03-10T14:14:15.620Z,18.90
2019-03-10T14:16:44.824Z,18.10
2019-03-10T14:19:14.129Z,16.90
2019-03-10T14:21:43.412Z,16.30
2019-03-10T14:24:12.796Z,16.30
2019-03-10T14:26:41.992Z,16.30
2019-03-10T14:29:11.248Z,16.60
2019-03-10T14:31:40.756Z,16.40
2019-03-10T14:34:09.994Z,16.80
2019-03-10T14:36:39.334Z,17.00
2019-03-10T14:39:09.485Z,16.70
2019-03-10T14:41:38.680Z,16.60
2019-03-10T14:44:07.836Z,16.30
2019-03-10T14:46:37.055Z,16.40
2019-03-10T14:49:06.215Z,16.40
2019-03-10T14:51:35.405Z,16.30
2019-03-10T14:54:04.710Z,16.10
2019-03-10T14:56:33.961Z,15.90
2019-03-10T14:59:03.141Z,15.70
2019-03-10T15:01:32.489Z,15.70
2019-03-10T15:04:01.786Z,15.60
2019-03-10T15:06:31.081Z,15.60
2019-03-10T15:09:00.282Z,15.50
2019-03-10T15:11:32.260Z,15.40
2019-03-10T15:14:01.690Z,15.30
2019-03-10T15:16:30.866Z,15.20
2019-03-10T15:19:00.170Z,15.10
2019-03-10T15:21:29.440Z,15.20
2019-03-10T15:23:58.624Z,15.50
2019-03-10T15:26:28.260Z,15.50
2019-03-10T15:28:57.429Z,15.50
2019-03-10T15:31:26.811Z,15.50
2019-03-10T15:33:56.101Z,15.40
2019-03-10T15:36:25.627Z,15.20
2019-03-10T15:38:54.798Z,15.20
2019-03-10T15:41:23.995Z,14.90
2019-03-10T15:43:53.360Z,14.70
2019-03-10T15:46:22.612Z,14.60
2019-03-10T15:48:51.908Z,14.40
2019-03-10T15:51:21.327Z,14.40
2019-03-10T15:53:50.625Z,14.20
2019-03-10T15:56:19.876Z,14.20
2019-03-10T15:58:49.058Z,14.20
2019-03-10T16:01:18.469Z,14.10
2019-03-10T16:03:47.828Z,14.20
2019-03-10T16:06:17.232Z,14.20
2019-03-10T16:08:46.392Z,14.20
2019-03-10T16:11:15.604Z,14.20
2019-03-10T16:13:44.797Z,14.00
2019-03-10T16:16:14.065Z,13.90
2019-03-10T16:18:43.301Z,13.90
2019-03-10T16:21:12.506Z,13.80
2019-03-10T16:23:41.833Z,13.70
2019-03-10T16:26:11.169Z,13.60
2019-03-10T16:28:40.329Z,13.60
2019-03-10T16:31:09.497Z,13.70
2019-03-10T16:33:38.846Z,13.70
2019-03-10T16:36:08.019Z,13.60
2019-03-10T16:38:37.527Z,13.60
2019-03-10T16:41:06.928Z,13.50
2019-03-10T16:43:36.282Z,13.50
2019-03-10T16:46:05.544Z,13.50
2019-03-10T16:48:34.700Z,13.30
2019-03-10T16:51:04.032Z,13.30
2019-03-10T16:53:33.252Z,13.20
2019-03-10T16:56:03.364Z,13.10
2019-03-10T16:58:32.687Z,13.10
2019-03-10T17:01:01.952Z,13.00
2019-03-10T17:03:31.257Z,12.90
2019-03-10T17:06:00.428Z,12.90
2019-03-10T17:08:29.621Z,12.90
2019-03-10T17:10:59.081Z,12.80
2019-03-10T17:13:28.256Z,12.80
2019-03-10T17:15:57.476Z,12.70
2019-03-10T17:18:26.734Z,12.60
2019-03-10T17:20:56.027Z,12.60
2019-03-10T17:23:25.256Z,12.50
2019-03-10T17:25:54.442Z,12.50
2019-03-10T17:28:23.675Z,12.40
2019-03-10T17:30:52.849Z,12.40
2019-03-10T17:33:22.288Z,12.40
2019-03-10T17:35:51.473Z,12.30
2019-03-10T17:38:20.685Z,12.30
2019-03-10T17:40:49.872Z,12.30
2019-03-10T17:43:19.258Z,12.20
2019-03-10T17:45:48.501Z,12.30
2019-03-10T17:48:17.888Z,12.20
2019-03-10T17:50:47.208Z,12.10
2019-03-10T17:53:16.608Z,12.00
2019-03-10T17:55:46.027Z,12.00
2019-03-10T17:58:15.549Z,11.90
2019-03-10T18:00:44.915Z,12.00
2019-03-10T18:03:14.247Z,12.00
2019-03-10T18:05:43.579Z,12.00
2019-03-10T18:08:12.865Z,12.00
2019-03-10T18:10:42.054Z,12.00
2019-03-10T18:13:11.334Z,12.00
2019-03-10T18:15:40.685Z,12.00
2019-03-10T18:18:10.018Z,12.00
2019-03-10T18:20:39.336Z,12.10
2019-03-10T18:23:08.734Z,12.10
2019-03-10T18:25:38.301Z,12.10
2019-03-10T18:28:07.550Z,12.10
2019-03-10T18:30:36.911Z,12.10
2019-03-10T18:33:06.227Z,12.00
2019-03-10T18:35:35.570Z,11.90
2019-03-10T18:38:04.889Z,11.90
2019-03-10T18:40:34.219Z,11.90
2019-03-10T18:43:03.375Z,11.70
2019-03-10T18:45:32.574Z,11.60
2019-03-10T18:48:01.808Z,11.60
2019-03-10T18:50:31.127Z,11.60
2019-03-10T18:53:00.289Z,11.60
2019-03-10T18:55:30.244Z,11.60
2019-03-10T18:57:59.610Z,11.40
2019-03-10T19:00:28.959Z,10.60
2019-03-10T19:02:58.163Z,9.60
2019-03-10T19:05:27.313Z,9.40
2019-03-10T19:07:56.630Z,9.30
2019-03-10T19:10:25.856Z,9.30
2019-03-10T19:12:55.068Z,9.30
2019-03-10T19:15:24.465Z,9.50
2019-03-10T19:17:53.825Z,9.50
2019-03-10T19:20:22.981Z,9.50
2019-03-10T19:22:52.298Z,9.50
2019-03-10T19:25:21.520Z,9.50
2019-03-10T19:27:50.761Z,9.40
2019-03-10T19:30:19.997Z,9.40
2019-03-10T19:32:49.180Z,9.40
2019-03-10T19:35:18.499Z,9.40
2019-03-10T19:37:47.965Z,9.50
2019-03-10T19:40:17.284Z,9.40
2019-03-10T19:42:46.665Z,9.40
2019-03-10T19:45:16.405Z,9.40
2019-03-10T19:47:45.688Z,9.40
2019-03-10T19:50:15.576Z,9.40
2019-03-10T19:52:44.965Z,9.30
2019-03-10T19:55:14.383Z,9.20
2019-03-10T19:57:43.619Z,9.10
2019-03-10T20:00:14.957Z,9.10
2019-03-10T20:02:44.208Z,9.10
2019-03-10T20:05:13.527Z,9.10
2019-03-10T20:07:42.704Z,9.10
2019-03-10T20:10:12.868Z,9.10
2019-03-10T20:12:42.049Z,9.10
2019-03-10T20:15:13.408Z,9.10
2019-03-10T20:17:42.678Z,9.00
2019-03-10T20:20:13.590Z,9.10
2019-03-10T20:22:42.827Z,9.10
2019-03-10T20:25:12.624Z,9.10
2019-03-10T20:27:41.789Z,9.10
2019-03-10T20:30:13.551Z,9.00
2019-03-10T20:32:43.122Z,9.00
2019-03-10T20:35:12.450Z,9.00
2019-03-10T20:37:41.747Z,9.00
2019-03-10T20:40:12.534Z,9.00
2019-03-10T20:42:41.678Z,9.10
2019-03-10T20:45:11.228Z,9.10
2019-03-10T20:47:40.415Z,9.10
2019-03-10T20:50:11.089Z,9.00
2019-03-10T20:52:40.257Z,9.00
2019-03-10T20:55:09.932Z,8.90
2019-03-10T20:57:39.121Z,8.90
2019-03-10T21:00:11.618Z,8.90
2019-03-10T21:02:40.899Z,8.90
2019-03-10T21:05:10.754Z,8.80
2019-03-10T21:07:39.956Z,8.80
2019-03-10T21:10:11.028Z,8.80
2019-03-10T21:12:42.721Z,8.80
2019-03-10T21:15:13.794Z,8.70
2019-03-10T21:17:43.051Z,8.80
2019-03-10T21:20:14.845Z,8.80
2019-03-10T21:22:44.127Z,8.90
2019-03-10T21:25:18.088Z,8.70
2019-03-10T21:27:47.323Z,8.80
2019-03-10T21:30:18.472Z,8.70
2019-03-10T21:32:47.656Z,8.70
2019-03-10T21:35:18.112Z,8.70
2019-03-10T21:37:47.741Z,8.70
2019-03-10T21:40:18.733Z,8.60
2019-03-10T21:42:48.164Z,8.60
2019-03-10T21:45:17.331Z,8.60
2019-03-10T21:47:46.505Z,8.70
2019-03-10T21:50:16.038Z,8.70
2019-03-10T21:52:45.302Z,8.70
2019-03-10T21:55:14.659Z,8.60
2019-03-10T21:57:43.895Z,8.50
2019-03-10T22:00:13.956Z,8.50
2019-03-10T22:02:43.240Z,8.60
2019-03-10T22:05:12.643Z,8.50
2019-03-10T22:07:41.900Z,8.50
2019-03-10T22:10:11.761Z,8.50
2019-03-10T22:12:41.060Z,8.50
2019-03-10T22:15:11.764Z,8.50
2019-03-10T22:17:40.949Z,8.40
2019-03-10T22:20:12.575Z,8.50
2019-03-10T22:22:48.221Z,8.50
2019-03-10T22:25:13.721Z,8.40
2019-03-10T22:27:45.492Z,8.40
2019-03-10T22:30:15.550Z,8.40
2019-03-10T22:32:44.710Z,8.40
2019-03-10T22:35:13.899Z,8.40
2019-03-10T22:37:43.058Z,8.40
2019-03-10T22:40:12.824Z,8.40
2019-03-10T22:42:42.035Z,8.30
2019-03-10T22:45:11.848Z,8.40
2019-03-10T22:47:41.391Z,8.40
2019-03-10T22:50:11.583Z,8.40
2019-03-10T22:52:40.900Z,8.40
2019-03-10T22:55:10.313Z,8.40
2019-03-10T22:57:39.553Z,8.40
2019-03-10T23:00:12.834Z,8.40
2019-03-10T23:02:42.066Z,8.40
2019-03-10T23:05:11.544Z,8.40
2019-03-10T23:07:52.052Z,8.50
2019-03-10T23:10:21.234Z,8.40
2019-03-10T23:12:50.419Z,8.50
2019-03-10T23:15:19.621Z,8.50
2019-03-10T23:17:48.841Z,8.50
2019-03-10T23:20:18.348Z,8.50
2019-03-10T23:22:47.595Z,8.40
2019-03-10T23:25:16.828Z,8.50
2019-03-10T23:27:46.032Z,8.50
2019-03-10T23:30:15.353Z,8.40
2019-03-10T23:32:44.552Z,8.40
2019-03-10T23:35:14.027Z,8.40
2019-03-10T23:37:43.142Z,8.40
2019-03-10T23:40:12.488Z,8.40
2019-03-10T23:42:41.651Z,8.30
2019-03-10T23:45:11.512Z,8.30
2019-03-10T23:47:40.680Z,8.30
2019-03-10T23:50:11.859Z,8.30
2019-03-10T23:52:40.989Z,8.30
2019-03-10T23:55:10.128Z,8.30
2019-03-10T23:57:39.379Z,8.40
